Carseland, Canada
Current Conditions -  °F | °C
As of 4:00 PM on Monday 20 Oct 2014 (Local Time) from CYYC Reporting Station
Scattered Clouds Scattered Clouds  
Wind Chill: 72°   Ceiling: Unl
Heat Index: 72°   Visibility: 30mi
Dew Point: 28°   Wind: 13mph
Humidity: 20%   Direction: 210°SSW
Pressure: 29.59"   Gusts: 20mph
Location:  50.85°N, 113.47°W
Report Text: CYYC 202200Z 21011G17KT 30SM FEW100 SCT320 22/M02 A2959 RMK CU1CI3 CU TR SLP022 DENSITY ALT 5500FT
Loading
Personal Weather Stations






























Interactive Weather Map
Tropical Storm Tracking
New forecast layout! Learn more

10-Day Weather Forecast

Advertisements
Track Severe Weather on mobile